createdAt,value
2023-03-30T00:00:15.199Z,1.44
2023-03-30T00:01:15.420Z,1.46
2023-03-30T00:02:15.222Z,1.66
2023-03-30T00:03:15.322Z,1.54
2023-03-30T00:04:15.545Z,1.60
2023-03-30T00:05:15.492Z,1.83
2023-03-30T00:06:15.377Z,1.57
2023-03-30T00:07:15.395Z,1.38
2023-03-30T00:08:15.428Z,1.31
2023-03-30T00:09:15.497Z,1.70
2023-03-30T00:10:15.550Z,1.27
2023-03-30T00:11:15.618Z,1.69
2023-03-30T00:12:15.673Z,1.55
2023-03-30T00:13:15.885Z,1.26
2023-03-30T00:14:15.744Z,1.24
2023-03-30T00:15:15.814Z,1.42
2023-03-30T00:16:15.846Z,1.31
2023-03-30T00:17:15.885Z,1.39
2023-03-30T00:18:15.977Z,1.33
2023-03-30T00:19:16.020Z,1.51
2023-03-30T00:20:16.160Z,1.42
2023-03-30T00:21:16.130Z,1.29
2023-03-30T00:22:16.164Z,0.99
2023-03-30T00:23:16.162Z,1.44
2023-03-30T00:24:16.217Z,1.26
2023-03-30T00:25:16.200Z,1.81
2023-03-30T00:26:16.215Z,1.98
2023-03-30T00:27:16.208Z,1.69
2023-03-30T00:28:16.250Z,1.56
2023-03-30T00:29:16.260Z,1.66
2023-03-30T00:30:16.272Z,1.70
2023-03-30T00:31:16.309Z,1.66
2023-03-30T00:32:16.286Z,2.02
2023-03-30T00:33:16.286Z,1.19
2023-03-30T00:34:16.321Z,1.23
2023-03-30T00:35:16.358Z,2.00
2023-03-30T00:36:16.587Z,1.66
2023-03-30T00:37:16.437Z,1.53
2023-03-30T00:38:16.492Z,1.59
2023-03-30T00:39:16.569Z,1.57
2023-03-30T00:40:16.597Z,1.88
2023-03-30T00:41:16.665Z,1.46
2023-03-30T00:42:16.699Z,1.93
2023-03-30T00:43:16.760Z,1.87
2023-03-30T00:44:16.790Z,2.07
2023-03-30T00:45:16.821Z,1.47
2023-03-30T00:46:16.930Z,1.45
2023-03-30T00:47:16.895Z,1.28
2023-03-30T00:48:16.965Z,1.19
2023-03-30T00:49:16.957Z,1.66
2023-03-30T00:50:16.998Z,1.76
2023-03-30T00:51:17.058Z,2.04
2023-03-30T00:52:17.105Z,2.16
2023-03-30T00:53:17.146Z,2.09
2023-03-30T00:54:17.170Z,2.14
2023-03-30T00:55:17.171Z,2.51
2023-03-30T00:56:17.189Z,2.26
2023-03-30T00:57:17.219Z,2.56
2023-03-30T00:58:17.185Z,2.32
2023-03-30T00:59:17.174Z,1.67
2023-03-30T01:00:17.182Z,1.62
2023-03-30T01:01:17.258Z,1.89
2023-03-30T01:02:17.309Z,1.87
2023-03-30T01:03:17.406Z,1.97
2023-03-30T01:04:17.291Z,1.79
2023-03-30T01:05:17.323Z,1.86
2023-03-30T01:06:17.345Z,1.66
2023-03-30T01:07:17.365Z,1.39
2023-03-30T01:08:17.391Z,1.55
2023-03-30T01:09:17.464Z,1.91
2023-03-30T01:10:17.527Z,2.27
2023-03-30T01:11:17.591Z,2.19
2023-03-30T01:12:17.648Z,2.43
2023-03-30T01:13:17.707Z,2.60
2023-03-30T01:14:17.749Z,2.42
2023-03-30T01:15:17.790Z,3.11
2023-03-30T01:16:17.853Z,2.39
2023-03-30T01:17:17.905Z,2.43
2023-03-30T01:18:17.939Z,2.50
2023-03-30T01:19:18.005Z,2.12
2023-03-30T01:20:18.073Z,3.51
2023-03-30T01:21:18.139Z,2.92
2023-03-30T01:22:18.210Z,2.30
2023-03-30T01:23:18.283Z,2.41
2023-03-30T01:24:18.324Z,2.34
2023-03-30T01:25:18.432Z,2.22
2023-03-30T01:26:18.442Z,1.85
2023-03-30T01:27:18.537Z,1.54
2023-03-30T01:28:18.529Z,1.39
2023-03-30T01:29:18.603Z,2.74
2023-03-30T01:30:18.632Z,1.84
2023-03-30T01:31:18.754Z,1.73
2023-03-30T01:32:18.786Z,2.65
2023-03-30T01:33:18.853Z,2.18
2023-03-30T01:34:18.919Z,2.94
2023-03-30T01:35:19.048Z,2.97
2023-03-30T01:36:19.032Z,2.91
2023-03-30T01:37:19.092Z,2.71
2023-03-30T01:38:19.267Z,2.32
2023-03-30T01:39:19.163Z,2.68
2023-03-30T01:40:19.194Z,2.62
2023-03-30T01:41:19.299Z,2.37
2023-03-30T01:42:19.328Z,2.92
2023-03-30T01:43:19.403Z,3.29
2023-03-30T01:44:19.438Z,2.98
2023-03-30T01:45:19.465Z,3.34
2023-03-30T01:46:20.433Z,3.40
2023-03-30T01:47:19.547Z,2.77
2023-03-30T01:48:19.547Z,2.57
2023-03-30T01:49:19.585Z,2.64
2023-03-30T01:50:19.590Z,3.11
2023-03-30T01:51:19.621Z,3.24
2023-03-30T01:52:19.631Z,3.58
2023-03-30T01:53:19.662Z,3.69
2023-03-30T01:54:19.666Z,3.34
2023-03-30T01:55:19.696Z,3.31
2023-03-30T01:56:19.675Z,3.58
2023-03-30T01:57:19.784Z,3.87
2023-03-30T01:58:19.670Z,4.27
2023-03-30T01:59:19.665Z,3.82
2023-03-30T02:00:19.708Z,4.15
2023-03-30T02:01:19.650Z,4.29
2023-03-30T02:02:19.660Z,3.94
2023-03-30T02:03:19.802Z,3.27
2023-03-30T02:04:19.689Z,4.02
2023-03-30T02:05:19.679Z,3.84
2023-03-30T02:06:19.677Z,3.07
2023-03-30T02:07:19.670Z,3.50
2023-03-30T02:08:19.657Z,2.39
2023-03-30T02:09:19.649Z,3.04
2023-03-30T02:10:19.657Z,3.33
2023-03-30T02:11:19.678Z,3.67
2023-03-30T02:12:19.629Z,3.58
2023-03-30T02:13:19.624Z,3.86
2023-03-30T02:14:19.630Z,3.44
2023-03-30T02:15:19.620Z,2.39
2023-03-30T02:16:19.750Z,2.06
2023-03-30T02:17:19.632Z,2.17
2023-03-30T02:18:19.670Z,1.95
2023-03-30T02:19:19.654Z,2.17
2023-03-30T02:20:19.671Z,2.48
2023-03-30T02:21:19.676Z,3.08
2023-03-30T02:22:19.689Z,3.02
2023-03-30T02:23:19.776Z,3.35
2023-03-30T02:24:19.721Z,3.69
2023-03-30T02:25:19.918Z,3.31
2023-03-30T02:26:19.715Z,3.04
2023-03-30T02:27:19.720Z,2.92
2023-03-30T02:28:19.761Z,3.30
2023-03-30T02:29:19.713Z,2.58
2023-03-30T02:30:19.691Z,2.50
2023-03-30T02:31:19.684Z,2.19
2023-03-30T02:32:19.665Z,3.30
2023-03-30T02:33:19.657Z,2.92
2023-03-30T02:34:19.641Z,2.70
2023-03-30T02:35:19.629Z,2.99
2023-03-30T02:36:19.646Z,3.75
2023-03-30T02:37:19.605Z,3.49
2023-03-30T02:38:19.605Z,3.11
2023-03-30T02:39:19.602Z,2.48
2023-03-30T02:40:19.593Z,2.09
2023-03-30T02:41:19.607Z,3.17
2023-03-30T02:42:19.604Z,2.68
2023-03-30T02:43:19.604Z,3.69
2023-03-30T02:44:19.603Z,3.85
2023-03-30T02:45:19.629Z,3.65
2023-03-30T02:46:19.720Z,3.58
2023-03-30T02:47:19.645Z,3.04
2023-03-30T02:48:19.649Z,2.90
2023-03-30T02:49:19.647Z,2.67
2023-03-30T02:50:19.655Z,2.89
2023-03-30T02:51:19.648Z,2.36
2023-03-30T02:52:19.666Z,2.35
2023-03-30T02:53:19.693Z,2.62
2023-03-30T02:54:19.732Z,2.26
2023-03-30T02:55:19.812Z,2.44
2023-03-30T02:56:19.833Z,2.34
2023-03-30T02:57:19.900Z,2.93
2023-03-30T02:58:19.878Z,2.40
2023-03-30T02:59:19.944Z,2.12
2023-03-30T03:00:20.006Z,2.37
2023-03-30T03:01:20.094Z,1.99
2023-03-30T03:02:20.216Z,2.08
2023-03-30T03:03:20.273Z,2.00
2023-03-30T03:04:20.204Z,2.12
2023-03-30T03:05:20.259Z,1.79
2023-03-30T03:06:20.336Z,2.19
2023-03-30T03:07:20.354Z,1.89
2023-03-30T03:08:20.409Z,1.81
2023-03-30T03:09:20.460Z,2.44
2023-03-30T03:10:20.502Z,2.61
2023-03-30T03:11:20.547Z,3.81
2023-03-30T03:12:20.613Z,2.87
2023-03-30T03:13:20.699Z,2.70
2023-03-30T03:14:20.723Z,2.33
2023-03-30T03:15:20.754Z,2.85
2023-03-30T03:16:20.883Z,2.25
2023-03-30T03:17:20.837Z,2.22
2023-03-30T03:18:20.893Z,2.37
2023-03-30T03:19:20.968Z,2.35
2023-03-30T03:20:21.099Z,2.83
2023-03-30T03:21:21.079Z,2.29
2023-03-30T03:22:21.183Z,2.45
2023-03-30T03:23:21.221Z,2.49
2023-03-30T03:24:21.264Z,2.36
2023-03-30T03:25:21.360Z,2.13
2023-03-30T03:26:21.358Z,1.99
2023-03-30T03:27:21.390Z,2.69
2023-03-30T03:28:21.469Z,2.26
2023-03-30T03:29:21.479Z,2.74
2023-03-30T03:30:21.500Z,3.50
2023-03-30T03:31:21.559Z,3.36
2023-03-30T03:32:21.733Z,3.06
2023-03-30T03:33:21.651Z,3.20
2023-03-30T03:34:21.669Z,3.10
2023-03-30T03:35:21.741Z,3.65
2023-03-30T03:36:21.844Z,4.04
2023-03-30T03:37:21.853Z,4.90
2023-03-30T03:38:21.881Z,4.39
2023-03-30T03:39:21.955Z,4.68
2023-03-30T03:40:21.988Z,5.25
2023-03-30T03:41:22.026Z,5.24
2023-03-30T03:42:22.076Z,4.72
2023-03-30T03:43:22.092Z,4.52
2023-03-30T03:44:22.206Z,5.06
2023-03-30T03:45:22.301Z,4.29
2023-03-30T03:46:22.296Z,4.63
2023-03-30T03:47:22.370Z,4.92
2023-03-30T03:48:22.341Z,3.77
2023-03-30T03:49:22.413Z,4.48
2023-03-30T03:50:22.456Z,4.01
2023-03-30T03:51:22.532Z,3.62
2023-03-30T03:52:22.557Z,3.96
2023-03-30T03:53:22.657Z,4.76
2023-03-30T03:54:22.662Z,4.35
2023-03-30T03:55:22.727Z,4.31
2023-03-30T03:56:22.766Z,4.93
2023-03-30T03:57:23.003Z,4.59
2023-03-30T03:58:22.918Z,4.88
2023-03-30T03:59:22.954Z,4.81
2023-03-30T04:00:23.047Z,4.57
2023-03-30T04:01:23.072Z,4.88
2023-03-30T04:02:24.166Z,4.93
2023-03-30T04:03:23.200Z,5.79
2023-03-30T04:04:23.234Z,5.49
2023-03-30T04:05:23.288Z,5.98
2023-03-30T04:06:23.347Z,4.77
2023-03-30T04:07:23.429Z,3.93
2023-03-30T04:08:23.505Z,4.46
2023-03-30T04:09:23.568Z,4.44
2023-03-30T04:10:23.691Z,4.27
2023-03-30T04:11:23.786Z,4.08
2023-03-30T04:12:23.869Z,3.72
2023-03-30T04:13:23.922Z,3.51
2023-03-30T04:14:23.990Z,4.13
2023-03-30T04:15:24.074Z,3.52
2023-03-30T04:16:24.190Z,3.70
2023-03-30T04:17:24.261Z,3.58
2023-03-30T04:18:24.238Z,3.62
2023-03-30T04:19:24.274Z,4.15
2023-03-30T04:20:24.308Z,3.18
2023-03-30T04:21:24.345Z,3.68
2023-03-30T04:22:24.380Z,3.46
2023-03-30T04:23:24.415Z,3.70
2023-03-30T04:24:24.439Z,3.44
2023-03-30T04:25:24.465Z,3.10
2023-03-30T04:26:24.548Z,3.49
2023-03-30T04:27:24.517Z,4.15
2023-03-30T04:28:24.527Z,4.66
2023-03-30T04:29:24.545Z,4.23
2023-03-30T04:30:24.551Z,4.15
2023-03-30T04:31:24.593Z,5.16
2023-03-30T04:32:24.599Z,5.77
2023-03-30T04:33:24.594Z,6.26
2023-03-30T04:34:24.603Z,7.22
2023-03-30T04:35:24.642Z,8.24
2023-03-30T04:36:24.686Z,6.65
2023-03-30T04:37:24.668Z,7.14
2023-03-30T04:38:24.704Z,6.55
2023-03-30T04:39:24.730Z,4.91
2023-03-30T04:40:24.776Z,4.91
2023-03-30T04:41:24.831Z,4.60
2023-03-30T04:42:24.850Z,3.96
2023-03-30T04:43:24.893Z,3.54
2023-03-30T04:44:24.919Z,3.74
2023-03-30T04:45:24.991Z,3.37
2023-03-30T04:46:25.095Z,4.13
2023-03-30T04:47:25.151Z,5.83
2023-03-30T04:48:25.165Z,5.42
2023-03-30T04:49:25.232Z,6.84
2023-03-30T04:50:25.292Z,5.42
2023-03-30T04:51:25.365Z,4.96
2023-03-30T04:52:25.414Z,4.91
2023-03-30T04:53:25.443Z,4.59
2023-03-30T04:54:25.481Z,5.33
2023-03-30T04:55:25.550Z,5.74
2023-03-30T04:56:25.615Z,6.38
2023-03-30T04:57:25.683Z,6.73
2023-03-30T04:58:25.695Z,7.42
2023-03-30T04:59:25.768Z,8.34
2023-03-30T05:00:25.799Z,8.08
2023-03-30T05:01:25.971Z,7.58
2023-03-30T05:02:26.079Z,8.08
2023-03-30T05:03:26.082Z,8.46
2023-03-30T05:04:26.063Z,6.66
2023-03-30T05:05:26.118Z,6.66
2023-03-30T05:06:26.153Z,6.02
2023-03-30T05:07:26.223Z,6.22
2023-03-30T05:08:26.287Z,5.63
2023-03-30T05:09:26.300Z,5.90
2023-03-30T05:10:26.301Z,5.75
2023-03-30T05:11:26.312Z,5.94
2023-03-30T05:12:26.336Z,5.33
2023-03-30T05:13:26.335Z,5.29
2023-03-30T05:14:26.343Z,4.71
2023-03-30T05:15:26.365Z,4.85
2023-03-30T05:16:26.392Z,5.59
2023-03-30T05:17:26.406Z,5.20
2023-03-30T05:18:26.452Z,6.45
2023-03-30T05:19:26.440Z,6.48
2023-03-30T05:20:26.463Z,5.91
2023-03-30T05:21:26.541Z,5.78
2023-03-30T05:22:26.506Z,5.00
2023-03-30T05:23:26.554Z,5.59
2023-03-30T05:24:26.620Z,5.02
2023-03-30T05:25:26.656Z,4.33
2023-03-30T05:26:26.784Z,4.57
2023-03-30T05:27:26.778Z,3.99
2023-03-30T05:28:26.778Z,4.36
2023-03-30T05:29:27.437Z,5.02
2023-03-30T05:30:27.432Z,4.34
2023-03-30T05:31:26.877Z,5.00
2023-03-30T05:32:26.901Z,5.60
2023-03-30T05:33:26.887Z,4.70
2023-03-30T05:34:26.940Z,4.85
2023-03-30T05:35:26.955Z,5.72
2023-03-30T05:36:27.030Z,4.97
2023-03-30T05:37:27.027Z,5.80
2023-03-30T05:38:27.050Z,5.56
2023-03-30T05:39:27.063Z,6.18
2023-03-30T05:40:27.140Z,5.74
2023-03-30T05:41:27.245Z,5.61
2023-03-30T05:42:27.283Z,5.96
2023-03-30T05:43:27.431Z,6.99
2023-03-30T05:44:27.376Z,6.32
2023-03-30T05:45:27.448Z,5.07
2023-03-30T05:46:28.523Z,5.57
2023-03-30T05:47:28.013Z,5.09
2023-03-30T05:48:27.618Z,4.64
2023-03-30T05:49:27.678Z,4.52
2023-03-30T05:50:27.656Z,4.42
2023-03-30T05:51:27.708Z,4.12
2023-03-30T05:52:27.775Z,5.12
2023-03-30T05:53:27.835Z,5.15
2023-03-30T05:54:27.818Z,5.45
2023-03-30T05:55:27.834Z,5.07
2023-03-30T05:56:27.883Z,6.69
2023-03-30T05:57:28.082Z,6.80
2023-03-30T05:58:27.889Z,6.99
2023-03-30T05:59:27.921Z,13.35
2023-03-30T06:00:27.896Z,13.00
2023-03-30T06:01:27.942Z,8.01
2023-03-30T06:02:27.955Z,11.32
2023-03-30T06:03:28.065Z,12.68
2023-03-30T06:04:27.997Z,11.30
2023-03-30T06:05:27.920Z,13.26
2023-03-30T06:06:27.934Z,12.31
2023-03-30T06:07:27.919Z,13.53
2023-03-30T06:08:27.913Z,12.42
2023-03-30T06:09:27.912Z,7.52
2023-03-30T06:10:27.938Z,8.32
2023-03-30T06:11:27.930Z,10.00
2023-03-30T06:12:27.999Z,10.46
2023-03-30T06:13:28.447Z,8.12
2023-03-30T06:14:27.931Z,12.03
2023-03-30T06:15:28.956Z,10.50
2023-03-30T06:16:28.010Z,8.97
2023-03-30T06:17:28.030Z,8.09
2023-03-30T06:18:28.010Z,9.96
2023-03-30T06:19:27.989Z,9.83
2023-03-30T06:20:28.030Z,9.85
2023-03-30T06:21:28.012Z,7.96
2023-03-30T06:22:29.986Z,9.16
2023-03-30T06:23:28.093Z,11.13
2023-03-30T06:24:28.084Z,10.30
2023-03-30T06:25:28.099Z,10.09
2023-03-30T06:26:28.131Z,9.39
2023-03-30T06:27:28.137Z,9.42
2023-03-30T06:28:28.104Z,8.61
2023-03-30T06:29:28.123Z,8.48
2023-03-30T06:30:28.145Z,8.19
2023-03-30T06:31:28.981Z,8.49
2023-03-30T06:32:28.502Z,8.87
2023-03-30T06:33:28.129Z,7.21
2023-03-30T06:34:28.937Z,6.91
2023-03-30T06:35:28.185Z,6.31
2023-03-30T06:36:44.606Z,7.68
2023-03-30T06:37:29.258Z,6.94
2023-03-30T06:38:28.191Z,7.29
2023-03-30T06:39:28.194Z,9.11
2023-03-30T06:40:28.134Z,8.31
2023-03-30T06:41:28.140Z,9.85
2023-03-30T06:42:28.912Z,9.90
2023-03-30T06:43:28.127Z,11.44
2023-03-30T06:44:28.114Z,10.85
2023-03-30T06:45:28.156Z,10.55
2023-03-30T06:46:28.561Z,10.77
2023-03-30T06:47:28.164Z,11.92
2023-03-30T06:48:28.923Z,12.78
2023-03-30T06:49:28.929Z,12.92
2023-03-30T06:50:28.325Z,11.42
2023-03-30T06:51:28.319Z,13.79
2023-03-30T06:52:28.930Z,13.71
2023-03-30T06:53:28.410Z,14.62
2023-03-30T06:54:28.428Z,10.96
2023-03-30T06:55:28.496Z,11.58
2023-03-30T06:56:28.501Z,10.46
2023-03-30T06:57:28.523Z,9.79
2023-03-30T06:58:28.654Z,8.63
2023-03-30T06:59:28.614Z,9.18
2023-03-30T07:00:28.662Z,10.95
2023-03-30T07:01:28.831Z,13.15
2023-03-30T07:02:28.666Z,11.97
2023-03-30T07:03:28.680Z,9.29
2023-03-30T07:04:28.913Z,9.52
2023-03-30T07:05:28.733Z,8.02
2023-03-30T07:06:28.755Z,8.18
2023-03-30T07:07:28.769Z,7.95
2023-03-30T07:08:28.738Z,7.38
2023-03-30T07:09:29.452Z,7.81
2023-03-30T07:10:31.643Z,7.21
2023-03-30T07:11:28.690Z,7.65
2023-03-30T07:12:28.654Z,6.62
2023-03-30T07:13:28.951Z,6.89
2023-03-30T07:14:28.634Z,6.99
2023-03-30T07:15:28.636Z,7.94
2023-03-30T07:16:28.692Z,7.24
2023-03-30T07:17:28.620Z,7.12
2023-03-30T07:18:28.697Z,6.83
2023-03-30T07:19:28.601Z,6.29
2023-03-30T07:20:28.572Z,6.37
2023-03-30T07:21:28.575Z,6.22
2023-03-30T07:22:28.543Z,6.73
2023-03-30T07:23:28.516Z,5.92
2023-03-30T07:24:28.470Z,6.16
2023-03-30T07:25:28.437Z,7.31
2023-03-30T07:26:28.409Z,6.93
2023-03-30T07:27:28.413Z,7.71
2023-03-30T07:28:28.451Z,7.63
2023-03-30T07:29:28.321Z,8.10
2023-03-30T07:30:28.309Z,8.10
2023-03-30T07:31:29.022Z,8.23
2023-03-30T07:32:28.259Z,8.54
2023-03-30T07:33:28.241Z,8.90
2023-03-30T07:34:28.239Z,8.75
2023-03-30T07:35:28.168Z,8.25
2023-03-30T07:36:28.131Z,8.76
2023-03-30T07:37:28.222Z,9.60
2023-03-30T07:38:28.144Z,10.84
2023-03-30T07:39:28.130Z,10.24
2023-03-30T07:40:28.219Z,9.33
2023-03-30T07:41:28.199Z,8.20
2023-03-30T07:42:28.259Z,9.16
2023-03-30T07:43:28.288Z,8.94
2023-03-30T07:44:28.279Z,9.78
2023-03-30T07:45:28.355Z,9.50
2023-03-30T07:46:28.395Z,8.78
2023-03-30T07:47:28.423Z,9.38
2023-03-30T07:48:28.407Z,8.45
2023-03-30T07:49:28.473Z,8.44
2023-03-30T07:50:28.458Z,8.36
2023-03-30T07:51:28.503Z,9.41
2023-03-30T07:52:36.884Z,9.23
2023-03-30T07:53:29.521Z,8.16
2023-03-30T07:54:29.087Z,8.32
2023-03-30T07:55:28.481Z,9.44
2023-03-30T07:56:28.460Z,9.01
2023-03-30T07:57:28.659Z,8.79
2023-03-30T07:58:28.598Z,8.93
2023-03-30T07:59:28.569Z,9.26
2023-03-30T08:00:28.603Z,9.24
2023-03-30T08:01:28.600Z,8.57
2023-03-30T08:02:28.997Z,8.41
2023-03-30T08:03:28.836Z,9.10
2023-03-30T08:04:28.865Z,8.30
2023-03-30T08:05:28.790Z,8.70
2023-03-30T08:06:29.371Z,9.18
2023-03-30T08:07:28.823Z,9.06
2023-03-30T08:08:28.826Z,8.68
2023-03-30T08:09:28.842Z,10.78
2023-03-30T08:10:28.864Z,11.05
2023-03-30T08:11:28.883Z,10.34
2023-03-30T08:12:28.929Z,11.13
2023-03-30T08:13:28.972Z,10.15
2023-03-30T08:14:28.933Z,10.29
2023-03-30T08:15:28.906Z,10.92
2023-03-30T08:16:28.966Z,10.53
2023-03-30T08:17:28.869Z,10.07
2023-03-30T08:18:29.336Z,9.74
2023-03-30T08:19:28.760Z,8.79
2023-03-30T08:20:28.747Z,10.48
2023-03-30T08:21:28.725Z,11.96
2023-03-30T08:22:28.732Z,9.96
2023-03-30T08:23:28.694Z,10.08
2023-03-30T08:24:29.477Z,10.02
2023-03-30T08:25:29.963Z,11.40
2023-03-30T08:26:28.658Z,10.09
2023-03-30T08:27:28.632Z,9.18
2023-03-30T08:28:28.540Z,8.96
2023-03-30T08:29:28.507Z,8.43
2023-03-30T08:30:28.473Z,8.23
2023-03-30T08:31:28.469Z,10.90
2023-03-30T08:32:29.009Z,9.47
2023-03-30T08:33:28.376Z,8.91
2023-03-30T08:34:28.358Z,8.85
2023-03-30T08:35:28.481Z,10.04
2023-03-30T08:36:31.020Z,8.97
2023-03-30T08:37:28.371Z,10.39
2023-03-30T08:38:28.330Z,9.33
2023-03-30T08:39:28.297Z,9.68
2023-03-30T08:40:28.248Z,9.41
2023-03-30T08:41:28.216Z,9.52
2023-03-30T08:42:28.150Z,9.51
2023-03-30T08:43:28.086Z,9.03
2023-03-30T08:44:28.167Z,9.36
2023-03-30T08:45:28.140Z,10.60
2023-03-30T08:46:28.115Z,8.86
2023-03-30T08:47:28.096Z,9.14
2023-03-30T08:48:28.065Z,10.08
2023-03-30T08:49:27.936Z,8.97
2023-03-30T08:50:27.875Z,10.49
2023-03-30T08:51:27.813Z,10.27
2023-03-30T08:52:27.790Z,10.85
2023-03-30T08:53:27.734Z,10.97
2023-03-30T08:54:27.695Z,11.91
2023-03-30T08:55:27.658Z,10.75
2023-03-30T08:56:27.641Z,10.18
2023-03-30T08:57:28.500Z,10.69
2023-03-30T08:58:27.534Z,10.69
2023-03-30T08:59:27.500Z,10.93
2023-03-30T09:00:27.535Z,10.16
2023-03-30T09:01:27.425Z,11.39
2023-03-30T09:02:28.005Z,12.22
2023-03-30T09:03:27.301Z,10.40
2023-03-30T09:04:27.498Z,10.80
2023-03-30T09:05:27.289Z,10.83
2023-03-30T09:06:27.327Z,11.30
2023-03-30T09:07:27.312Z,10.87
2023-03-30T09:08:27.111Z,11.56
2023-03-30T09:09:27.060Z,12.20
2023-03-30T09:10:27.029Z,11.80
2023-03-30T09:11:27.007Z,11.48
2023-03-30T09:12:26.986Z,10.32
2023-03-30T09:13:26.930Z,12.23
2023-03-30T09:14:26.869Z,10.55
2023-03-30T09:15:27.658Z,10.89
2023-03-30T09:16:26.817Z,10.73
2023-03-30T09:17:26.895Z,10.64
2023-03-30T09:18:26.674Z,10.39
2023-03-30T09:19:26.609Z,11.00
2023-03-30T09:20:26.619Z,10.52
2023-03-30T09:21:26.564Z,12.02
2023-03-30T09:22:26.654Z,10.36
2023-03-30T09:23:26.515Z,11.59
2023-03-30T09:24:27.510Z,11.47
2023-03-30T09:25:26.448Z,10.77
2023-03-30T09:26:26.449Z,9.99
2023-03-30T09:27:26.416Z,10.77
2023-03-30T09:28:26.422Z,10.07
2023-03-30T09:29:27.004Z,10.05
2023-03-30T09:30:26.975Z,9.89
2023-03-30T09:31:26.371Z,9.41
2023-03-30T09:32:27.006Z,11.10
2023-03-30T09:33:27.004Z,10.46
2023-03-30T09:34:26.399Z,10.79
2023-03-30T09:35:26.966Z,9.75
2023-03-30T09:36:26.548Z,9.94
2023-03-30T09:37:26.496Z,10.82
2023-03-30T09:38:29.221Z,9.73
2023-03-30T09:39:27.258Z,10.30
2023-03-30T09:40:26.267Z,9.11
2023-03-30T09:41:26.210Z,9.48
2023-03-30T09:42:26.171Z,9.13
2023-03-30T09:43:26.210Z,9.51
2023-03-30T09:44:26.048Z,8.86
2023-03-30T09:45:26.036Z,10.04
2023-03-30T09:46:26.001Z,8.94
2023-03-30T09:47:25.880Z,8.96
2023-03-30T09:48:25.805Z,8.48
2023-03-30T09:49:25.735Z,8.28
2023-03-30T09:50:25.765Z,8.53
2023-03-30T09:51:25.572Z,8.37
2023-03-30T09:52:25.493Z,8.52
2023-03-30T09:53:25.443Z,9.54
2023-03-30T09:54:25.346Z,8.41
2023-03-30T09:55:25.288Z,7.76
2023-03-30T09:56:25.188Z,8.30
2023-03-30T09:57:25.130Z,7.49
2023-03-30T09:58:25.031Z,7.64
2023-03-30T09:59:24.958Z,7.57
2023-03-30T10:00:24.873Z,7.46
2023-03-30T10:01:24.809Z,7.72
2023-03-30T10:02:24.764Z,7.22
2023-03-30T10:03:25.697Z,8.14
2023-03-30T10:04:24.550Z,7.72
2023-03-30T10:05:24.458Z,8.17
2023-03-30T10:06:24.399Z,8.75
2023-03-30T10:07:24.350Z,7.88
2023-03-30T10:08:25.244Z,7.48
2023-03-30T10:09:24.171Z,7.93
2023-03-30T10:10:24.034Z,6.84
2023-03-30T10:11:24.519Z,7.10
2023-03-30T10:12:23.889Z,7.59
2023-03-30T10:13:23.787Z,6.91
2023-03-30T10:14:25.987Z,6.78
2023-03-30T10:15:23.623Z,6.46
2023-03-30T10:16:24.056Z,7.28
2023-03-30T10:17:23.504Z,7.08
2023-03-30T10:18:23.434Z,6.94
2023-03-30T10:19:23.402Z,7.05
2023-03-30T10:20:23.306Z,6.53
2023-03-30T10:21:23.270Z,5.98
2023-03-30T10:22:23.229Z,6.62
2023-03-30T10:23:23.062Z,6.32
2023-03-30T10:24:23.000Z,7.32
2023-03-30T10:25:23.523Z,6.40
2023-03-30T10:26:22.954Z,6.20
2023-03-30T10:27:22.674Z,6.11
2023-03-30T10:28:23.014Z,6.28
2023-03-30T10:29:22.494Z,5.94
2023-03-30T10:30:22.362Z,6.44
2023-03-30T10:31:22.279Z,7.36
2023-03-30T10:32:22.525Z,6.80
2023-03-30T10:33:22.092Z,6.71
2023-03-30T10:34:21.990Z,5.87
2023-03-30T10:35:21.983Z,5.75
2023-03-30T10:36:21.853Z,5.79
2023-03-30T10:37:21.715Z,6.00
2023-03-30T10:38:21.625Z,6.27
2023-03-30T10:39:21.545Z,6.19
2023-03-30T10:40:21.504Z,5.59
2023-03-30T10:41:21.393Z,6.97
2023-03-30T10:42:21.430Z,6.59
2023-03-30T10:43:21.218Z,5.86
2023-03-30T10:44:21.156Z,4.94
2023-03-30T10:45:21.977Z,5.54
2023-03-30T10:46:21.095Z,4.74
2023-03-30T10:47:21.178Z,11.69
2023-03-30T10:48:20.902Z,4.98
2023-03-30T10:49:20.788Z,5.52
2023-03-30T10:50:20.719Z,6.12
2023-03-30T10:51:20.629Z,6.53
2023-03-30T10:52:20.521Z,6.85
2023-03-30T10:53:20.997Z,6.74
2023-03-30T10:54:20.307Z,6.94
2023-03-30T10:55:20.220Z,7.31
2023-03-30T10:56:20.147Z,6.85
2023-03-30T10:57:20.032Z,5.82
2023-03-30T10:58:19.846Z,6.17
2023-03-30T10:59:19.942Z,6.19
2023-03-30T11:00:20.553Z,4.95
2023-03-30T11:01:19.608Z,5.96
2023-03-30T11:02:19.553Z,5.88
2023-03-30T11:03:19.536Z,5.71
2023-03-30T11:04:23.727Z,5.52
2023-03-30T11:05:20.220Z,5.36
2023-03-30T11:06:19.142Z,5.95
2023-03-30T11:07:19.064Z,5.87
2023-03-30T11:08:18.937Z,5.18
2023-03-30T11:09:18.897Z,5.49
2023-03-30T11:10:18.773Z,5.60
2023-03-30T11:11:18.666Z,5.04
2023-03-30T11:12:19.009Z,5.24
2023-03-30T11:13:18.491Z,5.54
2023-03-30T11:14:18.365Z,6.33
2023-03-30T11:15:18.331Z,6.94
2023-03-30T11:16:18.223Z,6.18
2023-03-30T11:17:18.126Z,5.39
2023-03-30T11:18:18.035Z,5.88
2023-03-30T11:19:18.055Z,5.94
2023-03-30T11:20:17.987Z,6.33
2023-03-30T11:21:17.837Z,5.72
2023-03-30T11:22:17.758Z,5.79
2023-03-30T11:23:17.665Z,5.80
2023-03-30T11:24:17.524Z,6.11
2023-03-30T11:25:18.081Z,6.30
2023-03-30T11:26:20.025Z,5.66
2023-03-30T11:27:17.227Z,6.52
2023-03-30T11:28:17.157Z,6.89
2023-03-30T11:29:17.058Z,6.81
2023-03-30T11:30:17.011Z,6.84
2023-03-30T11:31:16.965Z,6.51
2023-03-30T11:32:19.513Z,6.78
2023-03-30T11:33:17.507Z,6.42
2023-03-30T11:34:16.658Z,6.77
2023-03-30T11:35:16.577Z,6.36
2023-03-30T11:36:16.575Z,6.50
2023-03-30T11:37:17.517Z,6.42
2023-03-30T11:38:16.979Z,6.92
2023-03-30T11:39:31.236Z,6.75
2023-03-30T11:40:17.362Z,7.11
2023-03-30T11:41:23.017Z,6.88
2023-03-30T11:42:16.037Z,7.43
2023-03-30T11:43:15.960Z,8.02
2023-03-30T11:44:15.886Z,7.68
2023-03-30T11:45:15.869Z,7.45
2023-03-30T11:46:15.833Z,7.32
2023-03-30T11:47:15.826Z,7.16
2023-03-30T11:48:15.831Z,7.86
2023-03-30T11:49:15.753Z,8.46
2023-03-30T11:50:15.760Z,7.56
2023-03-30T11:51:15.699Z,7.17
2023-03-30T11:52:15.671Z,6.91
2023-03-30T11:53:15.684Z,7.31
2023-03-30T11:54:16.529Z,7.71
2023-03-30T11:55:15.550Z,7.08
2023-03-30T11:56:15.529Z,8.40
2023-03-30T11:57:15.546Z,7.95
2023-03-30T11:58:15.468Z,7.65
2023-03-30T11:59:15.484Z,7.92
2023-03-30T12:00:15.461Z,7.89
2023-03-30T12:01:15.384Z,7.51
2023-03-30T12:02:16.028Z,8.03
2023-03-30T12:03:15.358Z,8.43
2023-03-30T12:04:15.384Z,7.02
2023-03-30T12:05:15.242Z,7.40
2023-03-30T12:06:15.166Z,7.70
2023-03-30T12:07:15.216Z,6.53
2023-03-30T12:08:15.083Z,7.21
2023-03-30T12:09:15.040Z,7.66
2023-03-30T12:10:15.171Z,8.25
2023-03-30T12:11:14.960Z,7.66
2023-03-30T12:12:14.944Z,7.79
2023-03-30T12:13:14.879Z,7.58
2023-03-30T12:14:14.834Z,8.11
2023-03-30T12:15:14.820Z,7.92
2023-03-30T12:16:14.718Z,8.02
2023-03-30T12:17:14.643Z,7.21
2023-03-30T12:18:14.556Z,7.11
2023-03-30T12:19:14.527Z,7.79
2023-03-30T12:20:14.464Z,8.72
2023-03-30T12:21:14.359Z,7.62
2023-03-30T12:22:14.310Z,7.49
2023-03-30T12:23:14.514Z,7.79
2023-03-30T12:24:14.157Z,8.58
2023-03-30T12:25:14.099Z,8.31
2023-03-30T12:26:13.993Z,9.25
2023-03-30T12:27:13.956Z,9.13
2023-03-30T12:28:13.918Z,8.08
2023-03-30T12:29:52.794Z,7.80
2023-03-30T12:30:13.720Z,8.33
2023-03-30T12:31:13.625Z,7.86
2023-03-30T12:32:13.512Z,8.33
2023-03-30T12:33:13.522Z,8.59
2023-03-30T12:34:13.339Z,9.67
2023-03-30T12:35:13.255Z,9.37
2023-03-30T12:36:13.178Z,10.00
2023-03-30T12:37:13.311Z,8.96
2023-03-30T12:38:13.049Z,9.13
2023-03-30T12:39:13.055Z,9.63
2023-03-30T12:40:12.922Z,9.42
2023-03-30T12:41:12.784Z,9.64
2023-03-30T12:42:12.825Z,8.59
2023-03-30T12:43:12.607Z,8.25
2023-03-30T12:44:12.542Z,9.08
2023-03-30T12:45:12.450Z,8.63
2023-03-30T12:46:12.499Z,8.73
2023-03-30T12:47:12.504Z,8.66
2023-03-30T12:48:12.373Z,9.43
2023-03-30T12:49:12.303Z,8.75
2023-03-30T12:50:12.274Z,8.66
2023-03-30T12:51:12.218Z,8.21
2023-03-30T12:52:12.213Z,9.75
2023-03-30T12:53:12.194Z,8.84
2023-03-30T12:54:12.154Z,9.24
2023-03-30T12:55:12.127Z,8.46
2023-03-30T12:56:12.081Z,9.91
2023-03-30T12:57:12.088Z,9.63
2023-03-30T12:58:11.993Z,9.43
2023-03-30T12:59:11.918Z,9.44
2023-03-30T13:00:11.895Z,9.63
2023-03-30T13:01:11.857Z,9.95
2023-03-30T13:02:11.800Z,9.00
2023-03-30T13:03:11.825Z,9.45
2023-03-30T13:04:11.722Z,9.26
2023-03-30T13:05:11.640Z,9.19
2023-03-30T13:06:11.559Z,9.45
2023-03-30T13:07:11.504Z,10.13
2023-03-30T13:08:11.560Z,9.77
2023-03-30T13:09:11.356Z,8.87
2023-03-30T13:10:11.328Z,8.65
2023-03-30T13:11:11.294Z,8.08
2023-03-30T13:12:11.223Z,9.02
2023-03-30T13:13:11.188Z,9.31
2023-03-30T13:14:11.115Z,9.85
2023-03-30T13:15:11.061Z,9.07